Time;durP1;ratioP1;P1;durP2;ratioP2;P2;SDS_P1;SDS_P2;PMS_P1;PMS_P2;Temp;Humidity;BMP_temperature;BMP_pressure;BME280_temperature;BME280_humidity;BME280_pressure;Samples;Min_cycle;Max_cycle;Signal;HPM_P1;HPM_P2
2023/05/15 00:01:28;;;;;;;5.35;3.65;;;;;;;;;;5080055;28;20024;-84
2023/05/15 00:03:53;;;;;;;3.85;2.67;;;;;;;;;;5078982;28;20532;-84
2023/05/15 00:06:19;;;;;;;3.92;2.38;;;;;;;;;;5085907;28;20035;-85
2023/05/15 00:08:45;;;;;;;3.28;2.22;;;;;;;;;;5078703;28;20384;-84
2023/05/15 00:11:10;;;;;;;4.10;3.08;;;;;;;;;;5080120;28;20367;-85
2023/05/15 00:13:37;;;;;;;3.67;2.45;;;;;;;;;;5085710;28;20433;-85
2023/05/15 00:16:07;;;;;;;4.10;2.40;;;;;;;;;;5081552;28;20089;-85
2023/05/15 00:18:32;;;;;;;3.10;2.20;;;;;;;;;;5075152;28;20081;-85
2023/05/15 00:20:58;;;;;;;3.35;2.53;;;;;;;;;;5079988;28;20068;-84
2023/05/15 00:23:23;;;;;;;5.30;2.97;;;;;;;;;;5084772;28;20036;-83
2023/05/15 00:25:49;;;;;;;3.55;2.05;;;;;;;;;;5078761;28;20087;-84
2023/05/15 00:28:14;;;;;;;3.38;2.08;;;;;;;;;;5072387;28;20074;-86
2023/05/15 00:30:39;;;;;;;5.32;3.30;;;;;;;;;;5081670;28;20059;-83
2023/05/15 00:33:06;;;;;;;3.63;2.35;;;;;;;;;;5076966;28;20074;-87
2023/05/15 00:35:32;;;;;;;3.83;2.30;;;;;;;;;;5074273;28;20028;-83
2023/05/15 00:37:58;;;;;;;10.70;2.60;;;;;;;;;;5084245;28;20541;-85
2023/05/15 00:40:24;;;;;;;5.40;2.55;;;;;;;;;;5079631;28;20060;-86
2023/05/15 00:42:51;;;;;;;3.47;2.33;;;;;;;;;;5082708;28;20158;-86
2023/05/15 00:45:18;;;;;;;4.95;2.17;;;;;;;;;;5076821;28;20049;-85
2023/05/15 00:47:44;;;;;;;3.80;2.05;;;;;;;;;;5079555;28;20040;-86
2023/05/15 00:50:10;;;;;;;3.83;2.78;;;;;;;;;;5083002;28;20493;-84
2023/05/15 00:52:36;;;;;;;2.70;1.70;;;;;;;;;;5081338;28;20048;-85
2023/05/15 00:55:03;;;;;;;3.33;2.15;;;;;;;;;;5077335;28;20029;-84
2023/05/15 00:57:30;;;;;;;2.47;1.27;;;;;;;;;;5081121;28;20020;-85
2023/05/15 00:59:56;;;;;;;2.45;1.92;;;;;;;;;;5079661;28;20032;-85
2023/05/15 01:02:23;;;;;;;2.35;1.45;;;;;;;;;;5079788;28;20032;-86
2023/05/15 01:04:48;;;;;;;4.32;2.15;;;;;;;;;;5077827;28;20525;-86
2023/05/15 01:07:14;;;;;;;2.15;1.48;;;;;;;;;;5079157;28;20023;-86
2023/05/15 01:09:44;;;;;;;1.67;1.40;;;;;;;;;;5085525;28;20028;-84
2023/05/15 01:12:10;;;;;;;;;;;;;;;;;;5074408;28;20445;-84
2023/05/15 01:14:35;;;;;;;3.83;1.70;;;;;;;;;;5085181;28;20006;-84
2023/05/15 01:17:01;;;;;;;1.98;1.75;;;;;;;;;;5077322;28;20024;-85
2023/05/15 01:19:26;;;;;;;2.00;1.30;;;;;;;;;;5082362;28;20365;-85
2023/05/15 01:22:06;;;;;;;3.45;2.03;;;;;;;;;;5081192;28;20051;-84
2023/05/15 01:24:50;;;;;;;3.95;1.52;;;;;;;;;;5087931;28;20028;-86
2023/05/15 01:27:15;;;;;;;2.42;1.65;;;;;;;;;;5072854;28;20603;-85
2023/05/15 01:30:07;;;;;;;1.98;1.48;;;;;;;;;;5071927;28;20144;-86
2023/05/15 01:33:15;;;;;;;2.53;1.75;;;;;;;;;;5081358;28;20044;-85
2023/05/15 01:35:49;;;;;;;4.03;1.60;;;;;;;;;;5065253;28;20036;-86
2023/05/15 01:38:35;;;;;;;2.75;1.58;;;;;;;;;;5078327;28;20059;-86
2023/05/15 01:41:10;;;;;;;1.65;1.48;;;;;;;;;;5079562;28;20048;-86
2023/05/15 01:43:40;;;;;;;3.50;1.75;;;;;;;;;;5065809;28;20024;-86
2023/05/15 01:46:06;;;;;;;5.50;1.83;;;;;;;;;;5076352;28;20472;-86
2023/05/15 01:48:33;;;;;;;2.75;1.73;;;;;;;;;;5075116;28;20093;-85
2023/05/15 01:51:02;;;;;;;3.00;1.83;;;;;;;;;;5077193;28;20411;-86
2023/05/15 01:53:31;;;;;;;2.65;1.85;;;;;;;;;;5079745;28;20020;-86
2023/05/15 01:55:57;;;;;;;4.03;2.03;;;;;;;;;;5079359;28;20020;-86
2023/05/15 01:58:25;;;;;;;3.60;1.73;;;;;;;;;;5075413;28;20476;-84
2023/05/15 02:00:51;;;;;;;1.42;1.13;;;;;;;;;;5079906;28;20024;-86
2023/05/15 02:03:18;;;;;;;2.13;1.48;;;;;;;;;;5077184;28;20025;-86
2023/05/15 02:05:45;;;;;;;2.08;1.33;;;;;;;;;;5079130;28;20031;-84
2023/05/15 02:08:11;;;;;;;2.78;1.50;;;;;;;;;;5079026;28;20038;-85
2023/05/15 02:10:38;;;;;;;5.20;2.13;;;;;;;;;;5071647;28;20025;-85
2023/05/15 02:13:07;;;;;;;2.10;1.30;;;;;;;;;;5076899;28;20032;-85
2023/05/15 02:15:39;;;;;;;1.75;1.13;;;;;;;;;;5082087;28;20441;-86
2023/05/15 02:18:07;;;;;;;2.30;1.50;;;;;;;;;;5077397;28;20020;-86
2023/05/15 02:20:32;;;;;;;1.85;1.35;;;;;;;;;;5068325;28;20032;-84
2023/05/15 02:22:58;;;;;;;3.58;1.30;;;;;;;;;;5081510;28;20074;-84
2023/05/15 02:25:40;;;;;;;3.42;1.42;;;;;;;;;;5079023;28;20031;-85
2023/05/15 02:28:11;;;;;;;2.22;1.63;;;;;;;;;;5083684;28;20024;-83
2023/05/15 02:30:45;;;;;;;3.15;1.98;;;;;;;;;;5086391;28;20039;-85
2023/05/15 02:33:17;;;;;;;1.65;1.25;;;;;;;;;;5073809;28;20020;-86
2023/05/15 02:35:51;;;;;;;7.53;1.90;;;;;;;;;;5071665;28;20035;-87
2023/05/15 02:38:44;;;;;;;1.80;1.33;;;;;;;;;;5072110;28;20082;-85
2023/05/15 02:41:10;;;;;;;1.38;1.15;;;;;;;;;;5068308;28;20166;-85
2023/05/15 02:43:37;;;;;;;1.90;1.25;;;;;;;;;;5073579;28;20079;-84
2023/05/15 02:46:04;;;;;;;1.75;1.38;;;;;;;;;;5080628;28;20020;-85
2023/05/15 02:48:29;;;;;;;3.38;1.73;;;;;;;;;;5081614;28;20036;-86
2023/05/15 02:50:56;;;;;;;1.50;1.30;;;;;;;;;;5065819;28;20028;-84
2023/05/15 02:53:21;;;;;;;1.45;0.95;;;;;;;;;;5113270;27;20024;-85
2023/05/15 02:55:47;;;;;;;4.88;1.63;;;;;;;;;;5078850;28;20028;-85
2023/05/15 02:58:13;;;;;;;2.17;1.40;;;;;;;;;;5074047;28;20473;-84
2023/05/15 03:00:38;;;;;;;2.65;1.77;;;;;;;;;;5071853;28;20040;-87
2023/05/15 03:03:03;;;;;;;3.78;2.38;;;;;;;;;;5080720;28;20432;-85
2023/05/15 03:05:29;;;;;;;2.35;1.90;;;;;;;;;;5077671;28;20093;-85
2023/05/15 03:07:56;;;;;;;2.67;1.88;;;;;;;;;;5072257;28;20032;-84
2023/05/15 03:10:23;;;;;;;3.45;1.80;;;;;;;;;;5075965;28;20138;-84
2023/05/15 03:12:48;;;;;;;1.27;1.17;;;;;;;;;;5074572;28;20035;-85
2023/05/15 03:15:14;;;;;;;2.20;1.48;;;;;;;;;;5076719;28;20115;-85
2023/05/15 03:17:39;;;;;;;2.33;1.33;;;;;;;;;;5077461;28;20028;-84
2023/05/15 03:20:05;;;;;;;3.47;1.60;;;;;;;;;;5074828;28;20032;-84
2023/05/15 03:22:30;;;;;;;2.15;1.40;;;;;;;;;;5075574;28;20023;-84
2023/05/15 03:24:56;;;;;;;6.90;1.42;;;;;;;;;;5075766;28;20055;-86
2023/05/15 03:27:21;;;;;;;2.55;1.35;;;;;;;;;;5073371;28;20047;-87
2023/05/15 03:29:49;;;;;;;2.97;1.83;;;;;;;;;;5076494;28;20020;-87
2023/05/15 03:32:15;;;;;;;2.13;1.70;;;;;;;;;;5086205;28;20042;-84
2023/05/15 03:34:41;;;;;;;4.85;1.70;;;;;;;;;;5081429;28;20361;-84
2023/05/15 03:37:06;;;;;;;2.22;1.48;;;;;;;;;;5073329;28;20460;-85
2023/05/15 03:39:31;;;;;;;1.38;1.23;;;;;;;;;;5072527;28;20047;-85
2023/05/15 03:41:57;;;;;;;2.25;1.55;;;;;;;;;;5086050;28;20111;-85
2023/05/15 03:44:22;;;;;;;2.58;1.50;;;;;;;;;;5076798;28;20059;-85
2023/05/15 03:46:48;;;;;;;4.97;1.75;;;;;;;;;;5083980;28;20074;-85
2023/05/15 03:49:13;;;;;;;6.20;2.00;;;;;;;;;;5088219;28;20742;-85
2023/05/15 03:51:38;;;;;;;2.63;1.55;;;;;;;;;;5072221;28;20035;-85
2023/05/15 03:54:04;;;;;;;1.80;1.30;;;;;;;;;;5083716;28;20016;-86
2023/05/15 03:56:31;;;;;;;2.72;1.45;;;;;;;;;;5073855;28;20039;-84
2023/05/15 03:58:56;;;;;;;2.00;1.50;;;;;;;;;;5075314;28;20039;-84
2023/05/15 04:01:21;;;;;;;3.28;2.00;;;;;;;;;;5083658;28;20032;-84
2023/05/15 04:03:47;;;;;;;3.05;1.67;;;;;;;;;;5077269;28;20357;-85
2023/05/15 04:06:12;;;;;;;3.53;2.20;;;;;;;;;;5079266;28;20034;-84
2023/05/15 04:08:38;;;;;;;2.17;1.67;;;;;;;;;;5073390;28;20081;-85
2023/05/15 04:11:03;;;;;;;2.58;1.70;;;;;;;;;;5078445;28;20020;-84
2023/05/15 04:13:28;;;;;;;2.95;1.70;;;;;;;;;;5087404;28;20044;-85
2023/05/15 04:15:55;;;;;;;3.15;2.10;;;;;;;;;;5082003;28;20028;-84
2023/05/15 04:18:20;;;;;;;3.13;1.77;;;;;;;;;;5077045;28;20032;-84
2023/05/15 04:20:45;;;;;;;3.10;1.95;;;;;;;;;;5081529;28;20429;-84
2023/05/15 04:23:11;;;;;;;10.63;2.25;;;;;;;;;;5081965;28;20433;-84
2023/05/15 04:25:36;;;;;;;4.35;2.30;;;;;;;;;;5081263;28;20040;-81
2023/05/15 04:28:02;;;;;;;4.15;2.55;;;;;;;;;;5091197;28;20129;-80
2023/05/15 04:30:27;;;;;;;4.03;2.88;;;;;;;;;;5075595;28;20039;-81
2023/05/15 04:32:53;;;;;;;3.90;2.53;;;;;;;;;;5078031;28;20419;-81
2023/05/15 04:35:18;;;;;;;4.95;3.28;;;;;;;;;;5071526;28;20025;-81
2023/05/15 04:37:47;;;;;;;4.43;2.30;;;;;;;;;;5076162;28;20044;-81
2023/05/15 04:40:15;;;;;;;3.90;2.53;;;;;;;;;;5077542;28;20080;-81
2023/05/15 04:42:40;;;;;;;3.25;2.03;;;;;;;;;;5069942;28;20422;-81
2023/05/15 04:45:06;;;;;;;4.38;2.10;;;;;;;;;;5073539;28;20036;-81
2023/05/15 04:47:32;;;;;;;5.32;2.55;;;;;;;;;;5086143;28;20036;-81
2023/05/15 04:49:57;;;;;;;5.60;3.42;;;;;;;;;;5083478;28;20024;-81
2023/05/15 04:52:23;;;;;;;5.28;3.00;;;;;;;;;;5077472;28;20024;-81
2023/05/15 04:54:49;;;;;;;3.92;2.70;;;;;;;;;;5074617;28;20020;-81
2023/05/15 04:57:15;;;;;;;3.63;1.95;;;;;;;;;;5083218;28;20031;-81
2023/05/15 04:59:41;;;;;;;3.42;2.45;;;;;;;;;;5078398;28;20038;-80
2023/05/15 05:02:08;;;;;;;4.20;2.13;;;;;;;;;;5081410;28;20103;-81
2023/05/15 05:04:33;;;;;;;3.75;2.58;;;;;;;;;;5073888;28;20602;-81
2023/05/15 05:06:59;;;;;;;3.53;2.53;;;;;;;;;;5081103;28;20104;-81
2023/05/15 05:09:24;;;;;;;4.75;2.67;;;;;;;;;;5075252;28;20459;-84
2023/05/15 05:11:50;;;;;;;3.92;2.63;;;;;;;;;;5079399;28;20027;-82
2023/05/15 05:14:15;;;;;;;3.85;2.40;;;;;;;;;;5071096;28;20025;-82
2023/05/15 05:16:43;;;;;;;3.88;2.60;;;;;;;;;;5079893;28;20055;-86
2023/05/15 05:19:09;;;;;;;4.43;2.78;;;;;;;;;;5076081;28;20059;-82
2023/05/15 05:21:34;;;;;;;4.95;3.17;;;;;;;;;;5078032;28;20051;-80
2023/05/15 05:24:00;;;;;;;5.47;3.40;;;;;;;;;;5072760;28;20060;-80
2023/05/15 05:26:25;;;;;;;5.13;2.83;;;;;;;;;;5074594;28;20032;-80
2023/05/15 05:28:51;;;;;;;4.75;2.58;;;;;;;;;;5075203;28;20082;-81
2023/05/15 05:31:17;;;;;;;5.32;3.92;;;;;;;;;;5074641;28;20055;-81
2023/05/15 05:33:42;;;;;;;4.40;2.97;;;;;;;;;;5074629;28;20052;-81
2023/05/15 05:36:08;;;;;;;3.78;2.63;;;;;;;;;;5074374;28;20039;-82
2023/05/15 05:38:35;;;;;;;5.15;3.28;;;;;;;;;;5027909;28;1228640;-81
2023/05/15 05:41:01;;;;;;;4.60;3.20;;;;;;;;;;5080093;28;20028;-81
2023/05/15 05:43:27;;;;;;;4.47;3.22;;;;;;;;;;5075665;28;20028;-80
2023/05/15 05:45:52;;;;;;;5.50;3.22;;;;;;;;;;5082260;28;20050;-80
2023/05/15 05:48:18;;;;;;;4.68;3.10;;;;;;;;;;5079657;28;20024;-80
2023/05/15 05:50:44;;;;;;;10.02;4.07;;;;;;;;;;5079895;28;20429;-80
2023/05/15 05:53:09;;;;;;;8.90;4.07;;;;;;;;;;5079491;28;20019;-81
2023/05/15 05:55:35;;;;;;;7.00;3.67;;;;;;;;;;5079505;28;20052;-81
2023/05/15 05:58:00;;;;;;;5.60;3.92;;;;;;;;;;5074398;28;20082;-81
2023/05/15 06:00:26;;;;;;;5.63;3.85;;;;;;;;;;5081021;28;20057;-80
2023/05/15 06:02:57;;;;;;;6.10;3.70;;;;;;;;;;5075619;28;20024;-80
2023/05/15 06:05:24;;;;;;;8.93;4.60;;;;;;;;;;5083359;28;20051;-80
2023/05/15 06:07:50;;;;;;;6.50;3.80;;;;;;;;;;5078824;28;20069;-80
2023/05/15 06:10:15;;;;;;;5.60;3.85;;;;;;;;;;5079934;28;20098;-81
2023/05/15 06:12:41;;;;;;;4.28;3.20;;;;;;;;;;5085973;28;20035;-81
2023/05/15 06:15:07;;;;;;;4.55;3.05;;;;;;;;;;5076884;28;20028;-81
2023/05/15 06:17:32;;;;;;;5.57;3.95;;;;;;;;;;5076583;28;20024;-81
2023/05/15 06:19:58;;;;;;;5.15;3.40;;;;;;;;;;5086354;28;20032;-81
2023/05/15 06:22:23;;;;;;;5.25;3.42;;;;;;;;;;5080020;28;20738;-81
2023/05/15 06:24:49;;;;;;;4.00;2.92;;;;;;;;;;5081798;28;20031;-82
2023/05/15 06:27:14;;;;;;;5.72;3.22;;;;;;;;;;5079816;28;20051;-81
2023/05/15 06:29:40;;;;;;;3.78;2.90;;;;;;;;;;5079563;28;20023;-81
2023/05/15 06:32:05;;;;;;;5.35;3.63;;;;;;;;;;5075177;28;20055;-83
2023/05/15 06:34:31;;;;;;;3.58;2.47;;;;;;;;;;5076490;28;20031;-81
2023/05/15 06:36:56;;;;;;;5.47;3.42;;;;;;;;;;5083343;28;20052;-81
2023/05/15 06:39:22;;;;;;;5.53;2.83;;;;;;;;;;5082828;28;20033;-80
2023/05/15 06:41:47;;;;;;;4.28;2.40;;;;;;;;;;5072521;28;20567;-82
2023/05/15 06:44:12;;;;;;;9.45;3.15;;;;;;;;;;5073690;28;20024;-82
2023/05/15 06:46:38;;;;;;;3.40;2.10;;;;;;;;;;5076768;28;20032;-82
2023/05/15 06:49:03;;;;;;;11.13;3.67;;;;;;;;;;5076015;28;20131;-83
2023/05/15 06:51:29;;;;;;;7.03;2.90;;;;;;;;;;5081078;28;20028;-84
2023/05/15 06:53:55;;;;;;;5.60;2.85;;;;;;;;;;5078834;28;20511;-83
2023/05/15 06:56:20;;;;;;;4.70;3.15;;;;;;;;;;5082189;28;20072;-83
2023/05/15 06:58:46;;;;;;;4.65;2.65;;;;;;;;;;5069329;28;20104;-85
2023/05/15 07:01:11;;;;;;;4.75;2.50;;;;;;;;;;5083429;28;20033;-85
2023/05/15 07:03:37;;;;;;;7.05;2.92;;;;;;;;;;5077127;28;20025;-84
2023/05/15 07:06:03;;;;;;;3.55;2.30;;;;;;;;;;5079793;28;20032;-84
2023/05/15 07:08:28;;;;;;;4.85;3.30;;;;;;;;;;5075139;28;20028;-83
2023/05/15 07:10:54;;;;;;;4.70;3.00;;;;;;;;;;5077099;28;20342;-84
2023/05/15 07:13:20;;;;;;;5.57;3.00;;;;;;;;;;5083463;28;20475;-84
2023/05/15 07:15:45;;;;;;;3.92;2.47;;;;;;;;;;5081149;28;20024;-83
2023/05/15 07:18:11;;;;;;;4.82;2.97;;;;;;;;;;5075284;28;20094;-84
2023/05/15 07:20:36;;;;;;;5.25;2.80;;;;;;;;;;5073448;28;20115;-84
2023/05/15 07:23:02;;;;;;;4.22;2.88;;;;;;;;;;5076907;28;20024;-84
2023/05/15 07:25:28;;;;;;;4.97;2.58;;;;;;;;;;5078908;28;20647;-84
2023/05/15 07:27:53;;;;;;;6.47;3.05;;;;;;;;;;5070864;28;20054;-83
2023/05/15 07:30:19;;;;;;;6.20;3.45;;;;;;;;;;5083877;28;20028;-82
2023/05/15 07:32:44;;;;;;;4.90;2.88;;;;;;;;;;5079645;28;20036;-82
2023/05/15 07:35:13;;;;;;;4.70;3.28;;;;;;;;;;5074587;28;20036;-82
2023/05/15 07:37:38;;;;;;;5.25;3.35;;;;;;;;;;5071908;28;20503;-82
2023/05/15 07:40:05;;;;;;;6.15;3.50;;;;;;;;;;5084012;28;20028;-81
2023/05/15 07:42:30;;;;;;;5.00;3.67;;;;;;;;;;5078513;28;20469;-83
2023/05/15 07:44:55;;;;;;;7.30;4.28;;;;;;;;;;5075565;28;20115;-83
2023/05/15 07:47:21;;;;;;;6.72;4.13;;;;;;;;;;5070062;28;20082;-83
2023/05/15 07:49:46;;;;;;;6.32;4.03;;;;;;;;;;5083425;28;20381;-85
2023/05/15 07:52:11;;;;;;;7.45;4.70;;;;;;;;;;5075879;28;20039;-83
2023/05/15 07:54:38;;;;;;;6.22;4.00;;;;;;;;;;5079888;28;20035;-84
2023/05/15 07:57:04;;;;;;;8.18;4.30;;;;;;;;;;5070499;28;20695;-82
2023/05/15 07:59:29;;;;;;;7.63;5.05;;;;;;;;;;5069502;28;20020;-82
2023/05/15 08:01:55;;;;;;;7.40;4.25;;;;;;;;;;5078378;28;20025;-83
2023/05/15 08:04:20;;;;;;;9.23;4.97;;;;;;;;;;5079486;28;20020;-84
2023/05/15 08:06:46;;;;;;;6.03;4.13;;;;;;;;;;5074075;28;20040;-82
2023/05/15 08:09:11;;;;;;;7.93;4.65;;;;;;;;;;5074360;28;20479;-84
2023/05/15 08:11:37;;;;;;;8.93;5.10;;;;;;;;;;5074889;28;20115;-83
2023/05/15 08:14:02;;;;;;;10.55;5.30;;;;;;;;;;5077887;28;20066;-83
2023/05/15 08:16:28;;;;;;;6.80;4.07;;;;;;;;;;5075642;28;20369;-83
2023/05/15 08:18:57;;;;;;;7.32;4.63;;;;;;;;;;5078420;28;20039;-82
2023/05/15 08:21:23;;;;;;;7.97;5.07;;;;;;;;;;5086689;28;20046;-81
2023/05/15 08:23:48;;;;;;;7.70;5.22;;;;;;;;;;5085257;28;20118;-83
2023/05/15 08:26:13;;;;;;;7.50;4.38;;;;;;;;;;5086678;28;20033;-82
2023/05/15 08:28:39;;;;;;;7.22;4.40;;;;;;;;;;5081627;28;20063;-82
2023/05/15 08:31:05;;;;;;;9.85;5.75;;;;;;;;;;5086448;28;20179;-84
2023/05/15 08:33:30;;;;;;;10.95;5.25;;;;;;;;;;5079282;28;20119;-84
2023/05/15 08:35:55;;;;;;;11.57;5.25;;;;;;;;;;5073347;28;20036;-84
2023/05/15 08:38:21;;;;;;;8.82;5.85;;;;;;;;;;5083980;28;20050;-84
2023/05/15 08:40:49;;;;;;;9.02;5.28;;;;;;;;;;5076397;28;20369;-83
2023/05/15 08:43:16;;;;;;;9.45;6.03;;;;;;;;;;5080931;28;20020;-83
2023/05/15 08:45:42;;;;;;;12.45;6.97;;;;;;;;;;5078542;28;20028;-83
2023/05/15 08:48:20;;;;;;;11.55;6.32;;;;;;;;;;5082090;28;20074;-83
2023/05/15 08:50:46;;;;;;;10.02;5.25;;;;;;;;;;5077872;28;20028;-83
2023/05/15 08:53:12;;;;;;;16.92;8.27;;;;;;;;;;5077495;28;20035;-85
2023/05/15 08:55:39;;;;;;;12.80;6.85;;;;;;;;;;5078364;28;20059;-85
2023/05/15 08:58:04;;;;;;;10.73;6.40;;;;;;;;;;5080294;28;20052;-84
2023/05/15 09:00:30;;;;;;;13.68;7.22;;;;;;;;;;5075480;28;20569;-83
2023/05/15 09:03:00;;;;;;;11.20;6.78;;;;;;;;;;5076027;28;20146;-83
2023/05/15 09:05:27;;;;;;;10.30;5.93;;;;;;;;;;5083749;28;20038;-85
2023/05/15 09:07:53;;;;;;;11.82;6.75;;;;;;;;;;5079485;28;20032;-86
2023/05/15 09:10:19;;;;;;;11.00;6.82;;;;;;;;;;5079599;28;20032;-83
2023/05/15 09:12:45;;;;;;;11.23;6.18;;;;;;;;;;5076806;28;20035;-83
2023/05/15 09:15:13;;;;;;;9.18;5.90;;;;;;;;;;5076186;28;20032;-83
2023/05/15 09:17:39;;;;;;;12.93;6.70;;;;;;;;;;5080502;28;20038;-84
2023/05/15 09:20:06;;;;;;;12.90;7.28;;;;;;;;;;5078077;28;20031;-83
2023/05/15 09:22:35;;;;;;;10.32;6.25;;;;;;;;;;5087114;28;20468;-82
2023/05/15 09:25:02;;;;;;;12.10;5.60;;;;;;;;;;5073231;28;20024;-83
2023/05/15 09:27:28;;;;;;;12.63;6.82;;;;;;;;;;5081673;28;20054;-83
2023/05/15 09:29:55;;;;;;;11.60;6.22;;;;;;;;;;5078411;28;20107;-83
2023/05/15 09:32:20;;;;;;;16.15;6.53;;;;;;;;;;5077195;28;20066;-83
2023/05/15 09:34:47;;;;;;;10.15;5.95;;;;;;;;;;5080895;28;20040;-86
2023/05/15 09:37:32;;;;;;;9.07;5.63;;;;;;;;;;5083043;28;20109;-82
2023/05/15 09:40:09;;;;;;;10.27;5.63;;;;;;;;;;5069156;28;20384;-82
2023/05/15 09:42:35;;;;;;;8.40;5.10;;;;;;;;;;5071553;28;20032;-83
2023/05/15 09:45:01;;;;;;;9.30;5.78;;;;;;;;;;5097895;28;20460;-81
2023/05/15 09:47:27;;;;;;;12.13;6.25;;;;;;;;;;5080588;28;20085;-87
2023/05/15 09:49:52;;;;;;;10.60;5.82;;;;;;;;;;5074015;28;20097;-87
2023/05/15 09:52:18;;;;;;;4.72;3.65;;;;;;;;;;5070362;28;20024;-82
2023/05/15 09:54:46;;;;;;;9.63;4.90;;;;;;;;;;5085744;28;20086;-80
2023/05/15 09:57:12;;;;;;;8.73;4.72;;;;;;;;;;5083150;28;20032;-84
2023/05/15 09:59:47;;;;;;;8.10;5.22;;;;;;;;;;5077126;28;20522;-80
2023/05/15 10:02:30;;;;;;;8.65;4.57;;;;;;;;;;5076067;28;20024;-89
2023/05/15 10:04:57;;;;;;;8.63;4.22;;;;;;;;;;5070925;28;20029;-81
2023/05/15 10:07:30;;;;;;;6.40;4.05;;;;;;;;;;5066666;28;20039;-85
2023/05/15 10:09:55;;;;;;;6.78;4.10;;;;;;;;;;5069178;28;20032;-83
2023/05/15 10:12:22;;;;;;;7.05;4.18;;;;;;;;;;5077138;28;20043;-81
2023/05/15 10:14:49;;;;;;;8.48;3.72;;;;;;;;;;5074740;28;20435;-83
2023/05/15 10:17:14;;;;;;;6.45;3.88;;;;;;;;;;5070452;28;20040;-83
2023/05/15 10:19:41;;;;;;;8.48;5.38;;;;;;;;;;5078308;28;20076;-83
2023/05/15 10:22:09;;;;;;;11.85;5.68;;;;;;;;;;5069079;28;20020;-83
2023/05/15 10:24:37;;;;;;;9.88;6.13;;;;;;;;;;5073196;28;20533;-83
2023/05/15 10:27:03;;;;;;;8.50;5.45;;;;;;;;;;5075278;28;20467;-86
2023/05/15 10:29:29;;;;;;;8.02;4.35;;;;;;;;;;5073755;28;20518;-86
2023/05/15 10:31:57;;;;;;;15.50;7.15;;;;;;;;;;5068881;28;20060;-88
2023/05/15 10:34:23;;;;;;;9.68;6.00;;;;;;;;;;5072389;28;20060;-85
2023/05/15 10:36:49;;;;;;;11.45;5.38;;;;;;;;;;5074127;28;20024;-85
2023/05/15 10:39:16;;;;;;;10.02;5.45;;;;;;;;;;5075709;28;20039;-85
2023/05/15 10:41:43;;;;;;;8.85;5.38;;;;;;;;;;5071687;28;20606;-85
2023/05/15 10:44:10;;;;;;;7.45;5.03;;;;;;;;;;5106368;27;20056;-86
2023/05/15 10:46:36;;;;;;;9.10;5.07;;;;;;;;;;5078331;28;20032;-87
2023/05/15 10:49:02;;;;;;;9.05;5.32;;;;;;;;;;5075298;28;20451;-87
2023/05/15 10:51:29;;;;;;;8.57;4.47;;;;;;;;;;5076190;28;20086;-88
2023/05/15 10:53:55;;;;;;;11.38;5.60;;;;;;;;;;5077288;28;20104;-87
2023/05/15 10:56:29;;;;;;;11.57;6.13;;;;;;;;;;5081090;28;20028;-87
2023/05/15 10:58:54;;;;;;;10.52;5.57;;;;;;;;;;5074578;28;20058;-90
2023/05/15 11:01:28;;;;;;;11.35;6.25;;;;;;;;;;5076556;28;20112;-88
2023/05/15 11:04:07;;;;;;;8.50;5.07;;;;;;;;;;5075152;28;20024;-89
2023/05/15 11:06:33;;;;;;;13.55;5.82;;;;;;;;;;5095570;28;20035;-91
2023/05/15 11:09:38;;;;;;;10.82;6.35;;;;;;;;;;5082812;28;20028;-90
2023/05/15 11:12:08;;;;;;;11.43;5.13;;;;;;;;;;5082275;28;20036;-88
2023/05/15 11:14:36;;;;;;;;;;;;;;;;;;5076554;28;20032;-89
2023/05/15 11:17:09;;;;;;;9.27;4.70;;;;;;;;;;5082000;28;19912;-88
2023/05/15 11:19:36;;;;;;;11.75;6.13;;;;;;;;;;5072093;28;20043;-86
2023/05/15 11:22:07;;;;;;;26.00;9.63;;;;;;;;;;5070255;28;20385;-84
2023/05/15 11:25:04;;;;;;;11.70;6.78;;;;;;;;;;5069961;28;20025;-85
2023/05/15 11:27:43;;;;;;;12.15;6.20;;;;;;;;;;5074410;28;20040;-86
2023/05/15 11:30:23;;;;;;;8.55;5.28;;;;;;;;;;5078757;28;20433;-87
2023/05/15 11:32:50;;;;;;;13.32;6.45;;;;;;;;;;5068061;28;20040;-85
2023/05/15 11:35:23;;;;;;;12.82;5.63;;;;;;;;;;5065084;28;20040;-87
2023/05/15 11:37:53;;;;;;;11.55;5.80;;;;;;;;;;5070867;28;20404;-85
2023/05/15 11:40:27;;;;;;;12.93;5.80;;;;;;;;;;5074358;28;20028;-85
2023/05/15 11:43:16;;;;;;;11.00;6.82;;;;;;;;;;5071311;28;20115;-86
2023/05/15 11:45:42;;;;;;;11.52;6.78;;;;;;;;;;5068185;28;20028;-82
2023/05/15 11:48:14;;;;;;;11.02;5.63;;;;;;;;;;5076600;28;20040;-82
2023/05/15 11:50:41;;;;;;;10.95;5.15;;;;;;;;;;5068471;28;20024;-84
2023/05/15 11:53:08;;;;;;;7.10;4.50;;;;;;;;;;5067550;28;20040;-82
2023/05/15 11:55:36;;;;;;;10.38;6.22;;;;;;;;;;5070679;28;20028;-87
2023/05/15 11:58:03;;;;;;;10.05;4.88;;;;;;;;;;5073007;28;20423;-83
2023/05/15 12:00:28;;;;;;;8.40;4.65;;;;;;;;;;5071588;28;20028;-84
2023/05/15 12:02:54;;;;;;;6.35;4.10;;;;;;;;;;5068486;28;20362;-82
2023/05/15 12:05:19;;;;;;;8.10;5.18;;;;;;;;;;5074626;28;20028;-81
2023/05/15 12:07:45;;;;;;;8.85;6.05;;;;;;;;;;5063033;28;20108;-81
2023/05/15 12:10:12;;;;;;;7.60;4.38;;;;;;;;;;5072487;28;20024;-81
2023/05/15 12:12:40;;;;;;;14.57;4.85;;;;;;;;;;5070916;28;20074;-81
2023/05/15 12:15:08;;;;;;;7.85;4.50;;;;;;;;;;5075580;28;20079;-81
2023/05/15 12:17:36;;;;;;;11.05;4.72;;;;;;;;;;5070445;28;20421;-83
2023/05/15 12:20:03;;;;;;;12.27;4.60;;;;;;;;;;5072425;28;20021;-83
2023/05/15 12:22:35;;;;;;;9.57;5.93;;;;;;;;;;5078665;28;20020;-84
2023/05/15 12:25:00;;;;;;;6.90;4.75;;;;;;;;;;5082585;28;20095;-83
2023/05/15 12:27:26;;;;;;;9.15;5.40;;;;;;;;;;5079739;28;20036;-81
2023/05/15 12:29:52;;;;;;;12.40;5.80;;;;;;;;;;5080032;28;20070;-81
2023/05/15 12:32:18;;;;;;;10.68;6.97;;;;;;;;;;5080850;28;20119;-82
2023/05/15 12:34:44;;;;;;;10.93;5.80;;;;;;;;;;5077567;28;20095;-84
2023/05/15 12:37:13;;;;;;;9.65;5.22;;;;;;;;;;5084806;28;20052;-83
2023/05/15 12:39:55;;;;;;;9.60;5.25;;;;;;;;;;5066230;28;20527;-83
2023/05/15 12:42:21;;;;;;;6.57;4.60;;;;;;;;;;5081491;28;20028;-82
2023/05/15 12:44:53;;;;;;;8.60;4.97;;;;;;;;;;5078773;28;20103;-82
2023/05/15 12:47:26;;;;;;;6.93;4.80;;;;;;;;;;5079375;28;20028;-83
2023/05/15 12:49:58;;;;;;;7.70;3.92;;;;;;;;;;5081935;28;20048;-88
2023/05/15 12:52:27;;;;;;;7.68;3.80;;;;;;;;;;5080441;28;20024;-83
2023/05/15 12:54:52;;;;;;;8.77;4.53;;;;;;;;;;5080836;28;20024;-83
2023/05/15 12:57:19;;;;;;;6.57;4.05;;;;;;;;;;5081467;28;20470;-83
2023/05/15 12:59:45;;;;;;;7.65;4.07;;;;;;;;;;5078284;28;20381;-82
2023/05/15 13:02:11;;;;;;;8.10;3.90;;;;;;;;;;5077833;28;20035;-82
2023/05/15 13:04:37;;;;;;;6.15;4.07;;;;;;;;;;5080324;28;20107;-83
2023/05/15 13:07:03;;;;;;;6.47;4.32;;;;;;;;;;5074557;28;20086;-83
2023/05/15 13:09:29;;;;;;;10.50;4.00;;;;;;;;;;5079618;28;20498;-83
2023/05/15 13:11:55;;;;;;;7.15;5.10;;;;;;;;;;5075010;28;20017;-83
2023/05/15 13:14:25;;;;;;;8.38;3.67;;;;;;;;;;5076434;28;20052;-83
2023/05/15 13:16:51;;;;;;;9.98;4.22;;;;;;;;;;5079100;28;20044;-83
2023/05/15 13:19:17;;;;;;;5.18;3.92;;;;;;;;;;5081217;28;20063;-86
2023/05/15 13:21:43;;;;;;;7.80;3.47;;;;;;;;;;5064136;28;20025;-85
2023/05/15 13:24:09;;;;;;;8.77;4.53;;;;;;;;;;5079111;28;20439;-84
2023/05/15 13:26:34;;;;;;;7.00;4.18;;;;;;;;;;5076894;28;20032;-84
2023/05/15 13:29:00;;;;;;;14.20;4.93;;;;;;;;;;5077397;28;20166;-87
2023/05/15 13:31:26;;;;;;;11.82;4.28;;;;;;;;;;5087129;28;20044;-90
2023/05/15 13:33:51;;;;;;;6.50;3.78;;;;;;;;;;5081188;28;20024;-89
2023/05/15 13:36:16;;;;;;;5.88;4.05;;;;;;;;;;5078988;28;20028;-87
2023/05/15 13:38:42;;;;;;;6.50;3.97;;;;;;;;;;5077114;28;20049;-90
2023/05/15 13:41:08;;;;;;;7.13;3.88;;;;;;;;;;5077344;28;20035;-88
2023/05/15 13:43:33;;;;;;;5.18;4.00;;;;;;;;;;5077099;28;20023;-87
2023/05/15 13:45:58;;;;;;;5.88;4.00;;;;;;;;;;5074604;28;20082;-91
2023/05/15 13:48:24;;;;;;;6.10;3.55;;;;;;;;;;5084104;28;20034;-90
2023/05/15 13:50:50;;;;;;;4.40;3.17;;;;;;;;;;5077136;28;20051;-90
2023/05/15 13:53:15;;;;;;;10.43;4.28;;;;;;;;;;5106509;27;20513;-89
2023/05/15 13:55:45;;;;;;;9.07;4.10;;;;;;;;;;5066222;28;20052;-88
2023/05/15 13:58:12;;;;;;;8.18;4.18;;;;;;;;;;5078137;28;20438;-88
2023/05/15 14:00:38;;;;;;;5.20;3.78;;;;;;;;;;5068957;28;20059;-90
2023/05/15 14:03:05;;;;;;;7.45;3.53;;;;;;;;;;5096121;27;20035;-86
2023/05/15 14:05:31;;;;;;;5.55;3.40;;;;;;;;;;5074257;28;20032;-87
2023/05/15 14:07:56;;;;;;;5.32;3.53;;;;;;;;;;5084349;28;20033;-87
2023/05/15 14:10:25;;;;;;;6.25;3.80;;;;;;;;;;5077510;28;20031;-87
2023/05/15 14:12:50;;;;;;;4.13;3.42;;;;;;;;;;5073647;28;20024;-86
2023/05/15 14:15:16;;;;;;;5.93;3.45;;;;;;;;;;5078893;28;20028;-86
2023/05/15 14:17:42;;;;;;;9.75;4.10;;;;;;;;;;5075621;28;20084;-90
2023/05/15 14:20:11;;;;;;;9.38;3.65;;;;;;;;;;5079687;28;20059;-89
2023/05/15 14:22:37;;;;;;;5.55;3.65;;;;;;;;;;5070974;28;20376;-90
2023/05/15 14:25:04;;;;;;;5.43;4.35;;;;;;;;;;5074161;28;20028;-88
2023/05/15 14:27:29;;;;;;;9.75;3.88;;;;;;;;;;5071525;28;20040;-88
2023/05/15 14:29:58;;;;;;;8.38;4.30;;;;;;;;;;5075984;28;20384;-88
2023/05/15 14:32:23;;;;;;;5.43;4.40;;;;;;;;;;5078626;28;20040;-84
2023/05/15 14:34:49;;;;;;;8.38;4.78;;;;;;;;;;5077082;28;20017;-85
2023/05/15 14:37:14;;;;;;;8.05;4.80;;;;;;;;;;5080816;28;20515;-82
2023/05/15 14:39:40;;;;;;;8.50;4.60;;;;;;;;;;5073616;28;20036;-84
2023/05/15 14:42:06;;;;;;;13.63;6.40;;;;;;;;;;5076342;28;20040;-81